Time;durP1;ratioP1;P1;durP2;ratioP2;P2;SDS_P1;SDS_P2;PMS_P1;PMS_P2;Temp;Humidity;BMP_temperature;BMP_pressure;BME280_temperature;BME280_humidity;BME280_pressure;Samples;Min_cycle;Max_cycle;Signal;HPM_P1;HPM_P2
2021/07/28 00:00:30;;;;;;;24.87;14.98;;;;;;;25.00;46.80;99624.03;4419148;32;20034;-70
2021/07/28 00:02:56;;;;;;;25.02;13.80;;;;;;;25.01;46.52;99629.22;4419805;32;20104;-70
2021/07/28 00:05:22;;;;;;;21.58;13.10;;;;;;;24.88;46.86;99617.06;4416311;32;20038;-70
2021/07/28 00:07:48;;;;;;;21.27;13.45;;;;;;;24.99;46.61;99622.50;4419348;32;20161;-70
2021/07/28 00:10:14;;;;;;;23.35;13.10;;;;;;;24.82;46.81;99620.06;4418134;32;20085;-70
2021/07/28 00:12:40;;;;;;;21.50;12.95;;;;;;;24.87;46.79;99622.03;4419064;32;20092;-70
2021/07/28 00:15:07;;;;;;;22.50;13.55;;;;;;;24.85;46.78;99610.31;4418890;32;20089;-70
2021/07/28 00:17:34;;;;;;;20.00;12.75;;;;;;;24.94;46.82;99612.69;4418911;32;20126;-70
2021/07/28 00:20:04;;;;;;;19.00;12.85;;;;;;;24.96;46.88;99610.03;4421165;32;20061;-70
2021/07/28 00:25:23;;;;;;;19.35;11.95;;;;;;;25.19;46.46;99608.03;4418397;32;20087;-70
2021/07/28 00:27:50;;;;;;;19.77;12.73;;;;;;;25.06;46.44;99611.03;4419072;32;20419;-70
2021/07/28 00:30:16;;;;;;;18.15;11.23;;;;;;;25.21;46.14;99602.50;4417790;32;20454;-70
2021/07/28 00:32:42;;;;;;;22.62;11.95;;;;;;;25.23;46.34;99605.59;4415370;32;20387;-70
2021/07/28 00:35:09;;;;;;;22.13;12.02;;;;;;;25.33;45.80;99600.88;4422434;32;20120;-70
2021/07/28 00:37:35;;;;;;;22.80;13.10;;;;;;;25.19;45.97;99599.41;4418680;32;21118;-70
2021/07/28 00:40:03;;;;;;;21.20;12.02;;;;;;;25.27;45.70;99591.59;4424589;32;20103;-70
2021/07/28 00:42:30;;;;;;;22.25;11.57;;;;;;;25.23;46.04;99590.41;4421811;32;20387;-70
2021/07/28 00:44:56;;;;;;;19.05;10.43;;;;;;;25.31;45.73;99582.56;4422953;32;20120;-70
2021/07/28 00:47:22;;;;;;;15.23;9.95;;;;;;;25.16;45.68;99591.91;4421683;32;20045;-70
2021/07/28 00:49:48;;;;;;;18.80;10.20;;;;;;;25.25;45.48;99588.50;4425429;32;20205;-70
2021/07/28 00:52:14;;;;;;;15.32;9.68;;;;;;;25.12;45.51;99587.84;4425638;32;20092;-70
2021/07/28 00:54:41;;;;;;;22.52;11.52;;;;;;;25.33;44.86;99580.72;4419509;32;20038;-70
2021/07/28 00:57:08;;;;;;;20.17;10.57;;;;;;;25.34;45.38;99578.59;4421928;32;20096;-70
2021/07/28 00:59:34;;;;;;;18.42;10.80;;;;;;;25.33;45.23;99583.59;4422533;32;20103;-70
2021/07/28 01:02:00;;;;;;;15.23;9.40;;;;;;;25.11;45.48;99583.44;4421426;32;20077;-69
2021/07/28 01:04:26;;;;;;;17.75;10.90;;;;;;;25.00;45.80;99577.97;4423832;32;20168;-70
2021/07/28 01:06:52;;;;;;;21.92;12.73;;;;;;;24.95;46.14;99576.03;4419327;32;20370;-70
2021/07/28 01:09:18;;;;;;;20.88;12.65;;;;;;;25.14;46.21;99565.03;4432248;32;20446;-70
2021/07/28 01:11:44;;;;;;;17.23;10.57;;;;;;;25.04;46.43;99573.41;4421467;32;20413;-70
2021/07/28 01:14:10;;;;;;;19.98;12.10;;;;;;;25.01;46.58;99571.66;4421879;32;20391;-70
2021/07/28 01:16:39;;;;;;;19.62;10.93;;;;;;;25.18;46.34;99571.19;4420715;32;20114;-70
2021/07/28 01:19:10;;;;;;;17.60;10.68;;;;;;;25.12;46.07;99565.59;4424290;32;20049;-70
2021/07/28 01:21:37;;;;;;;15.60;10.07;;;;;;;25.16;45.89;99557.34;4420626;32;20108;-70
2021/07/28 01:24:04;;;;;;;18.73;10.15;;;;;;;24.99;46.48;99557.06;4422878;32;20125;-70
2021/07/28 01:26:31;;;;;;;15.10;9.55;;;;;;;25.14;46.26;99560.03;4421932;32;20425;-70
2021/07/28 01:28:57;;;;;;;20.25;10.95;;;;;;;25.30;45.90;99555.91;4421432;32;20431;-70
2021/07/28 01:31:23;;;;;;;16.33;10.27;;;;;;;25.18;46.07;99559.66;4419590;32;20077;-70
2021/07/28 01:33:49;;;;;;;18.30;10.27;;;;;;;25.19;46.05;99552.59;4422289;32;20069;-70
2021/07/28 01:38:51;;;;;;;19.47;11.53;;;;;;;25.55;45.95;99543.94;3950882;32;15859407;-70
2021/07/28 01:41:17;;;;;;;20.70;12.15;;;;;;;25.55;45.95;99543.94;4427623;32;20411;-70
2021/07/28 01:43:43;;;;;;;22.13;11.95;;;;;;;24.89;46.89;99541.69;4427022;32;20073;-70
2021/07/28 01:46:09;;;;;;;22.55;12.43;;;;;;;24.99;46.84;99547.66;4428607;32;20065;-70
2021/07/28 01:48:35;;;;;;;23.27;13.48;;;;;;;25.08;46.70;99545.03;4428261;32;20429;-70
2021/07/28 01:51:01;;;;;;;24.67;13.70;;;;;;;25.04;46.83;99544.63;4432579;32;20069;-70
2021/07/28 01:53:27;;;;;;;21.98;13.05;;;;;;;25.10;46.82;99538.72;4426925;32;20049;-70
2021/07/28 01:55:54;;;;;;;18.70;12.43;;;;;;;25.23;46.77;99542.25;4427708;32;20512;-70
2021/07/28 01:58:20;;;;;;;21.52;13.57;;;;;;;25.20;46.83;99543.37;4428888;32;20081;-70
2021/07/28 02:00:47;;;;;;;21.05;12.63;;;;;;;25.17;46.88;99537.97;4426902;32;20096;-70
2021/07/28 02:03:13;;;;;;;20.52;12.93;;;;;;;25.27;46.95;99548.41;4429078;32;20037;-70
2021/07/28 02:05:40;;;;;;;22.98;13.05;;;;;;;24.97;47.35;99545.34;4429128;26;20431;-70
2021/07/28 02:08:08;;;;;;;20.92;12.60;;;;;;;25.22;47.00;99546.44;4407899;32;20452;-70
2021/07/28 02:10:36;;;;;;;20.25;12.70;;;;;;;25.35;46.68;99546.34;4417055;32;20276;-70
2021/07/28 02:13:02;;;;;;;17.77;12.63;;;;;;;25.46;46.24;99545.22;4418845;32;20068;-70
2021/07/28 02:15:29;;;;;;;19.23;12.32;;;;;;;25.30;46.44;99549.34;4417663;32;20100;-70
2021/07/28 02:17:55;;;;;;;18.98;11.70;;;;;;;25.31;46.61;99543.06;4415564;32;20507;-70
2021/07/28 02:20:22;;;;;;;18.42;11.27;;;;;;;25.19;46.88;99543.94;4418315;32;20449;-70
2021/07/28 02:22:48;;;;;;;19.15;11.12;;;;;;;25.21;46.73;99544.91;4407739;32;20044;-70
2021/07/28 02:25:15;;;;;;;16.70;10.27;;;;;;;25.35;46.38;99536.94;4418746;32;20515;-70
2021/07/28 02:27:41;;;;;;;17.95;10.60;;;;;;;25.25;46.53;99538.78;4417424;32;20109;-70
2021/07/28 02:30:08;;;;;;;19.27;10.35;;;;;;;25.28;46.67;99529.78;4414354;32;20078;-70
2021/07/28 02:32:35;;;;;;;15.32;10.27;;;;;;;25.32;46.49;99538.84;4415431;32;20062;-70
2021/07/28 02:35:01;;;;;;;15.52;10.73;;;;;;;25.15;46.67;99527.03;4417056;32;21239;-70
2021/07/28 02:37:27;;;;;;;16.85;10.38;;;;;;;25.16;46.48;99530.69;4415502;32;20082;-70
2021/07/28 02:39:53;;;;;;;16.85;10.90;;;;;;;25.27;46.43;99534.00;4417618;32;20097;-70
2021/07/28 02:42:18;;;;;;;22.40;11.00;;;;;;;25.15;46.49;99526.25;4416403;32;20022;-70
2021/07/28 02:44:44;;;;;;;17.85;10.43;;;;;;;25.10;46.73;99525.06;4414562;32;20037;-70
2021/07/28 02:47:10;;;;;;;16.98;10.50;;;;;;;25.00;46.79;99520.41;4414491;32;20086;-70
2021/07/28 02:49:36;;;;;;;16.25;10.15;;;;;;;25.03;46.78;99519.28;4409812;32;20078;-70
2021/07/28 02:52:03;;;;;;;19.08;10.70;;;;;;;24.96;47.11;99520.00;4406580;32;20035;-70
2021/07/28 02:54:28;;;;;;;17.85;10.88;;;;;;;25.18;46.68;99514.38;4406120;32;20394;-70
2021/07/28 02:56:54;;;;;;;16.95;10.38;;;;;;;25.24;46.73;99522.84;4406866;32;20077;-70
2021/07/28 02:59:20;;;;;;;19.40;10.52;;;;;;;25.22;46.63;99514.00;4404340;32;20160;-70
2021/07/28 03:01:45;;;;;;;17.20;11.63;;;;;;;25.23;46.60;99527.84;4404931;32;20128;-70
2021/07/28 03:04:11;;;;;;;19.83;11.18;;;;;;;25.28;46.42;99521.13;4405691;32;20090;-70
2021/07/28 03:06:36;;;;;;;16.35;10.68;;;;;;;25.14;46.52;99516.09;4404225;32;20113;-70
2021/07/28 03:09:02;;;;;;;19.87;11.02;;;;;;;25.14;46.64;99513.19;4406564;32;20494;-70
2021/07/28 03:11:28;;;;;;;17.33;10.23;;;;;;;25.31;46.23;99513.44;4402786;32;20068;-70
2021/07/28 03:13:53;;;;;;;17.17;10.07;;;;;;;25.30;46.02;99509.81;4408650;32;20101;-70
2021/07/28 03:16:19;;;;;;;20.23;11.38;;;;;;;25.18;46.36;99499.97;4407226;32;20019;-70
2021/07/28 03:18:44;;;;;;;16.90;11.35;;;;;;;25.13;46.43;99497.28;4407773;32;20070;-70
2021/07/28 03:21:10;;;;;;;21.30;11.00;;;;;;;25.32;46.15;99501.38;4409231;32;20555;-70
2021/07/28 03:23:36;;;;;;;19.02;11.45;;;;;;;25.45;45.80;99496.81;4405143;32;20026;-70
2021/07/28 03:26:02;;;;;;;17.85;10.63;;;;;;;25.54;45.54;99493.41;4408712;32;20037;-70
2021/07/28 03:28:28;;;;;;;16.85;10.68;;;;;;;25.32;45.90;99497.75;4407276;32;20438;-70
2021/07/28 03:30:54;;;;;;;15.40;10.18;;;;;;;25.46;45.66;99493.38;4409335;32;20512;-70
2021/07/28 03:33:20;;;;;;;17.55;10.65;;;;;;;25.43;45.83;99488.75;4406783;32;20087;-70
2021/07/28 03:35:46;;;;;;;16.25;11.12;;;;;;;25.27;45.91;99492.91;4404569;32;20471;-70
2021/07/28 03:38:14;;;;;;;21.27;13.07;;;;;;;25.38;45.82;99483.97;4405671;32;20081;-70
2021/07/28 03:40:40;;;;;;;20.48;13.62;;;;;;;25.34;45.72;99478.56;4418950;32;20060;-70
2021/07/28 03:43:06;;;;;;;22.50;13.13;;;;;;;25.55;45.23;99483.44;4404544;32;20160;-70
2021/07/28 03:45:32;;;;;;;18.65;12.52;;;;;;;25.31;45.66;99470.25;4409520;32;20328;-70
2021/07/28 03:47:57;;;;;;;21.65;13.73;;;;;;;25.33;45.86;99479.91;4406588;32;20063;-70
2021/07/28 03:50:23;;;;;;;23.80;13.80;;;;;;;25.39;45.69;99476.84;4404460;32;20640;-70
2021/07/28 03:52:49;;;;;;;23.23;13.90;;;;;;;25.35;45.92;99468.56;4403218;32;20030;-70
2021/07/28 03:55:15;;;;;;;23.17;14.60;;;;;;;25.40;45.73;99469.00;4403788;32;20612;-70
2021/07/28 03:57:41;;;;;;;46.97;17.27;;;;;;;25.31;45.90;99468.19;4405300;32;20418;-70
2021/07/28 04:00:07;;;;;;;29.23;16.73;;;;;;;25.22;46.18;99456.44;4405627;32;20073;-70
2021/07/28 04:02:33;;;;;;;31.20;17.23;;;;;;;25.28;46.27;99466.41;4405447;32;20038;-70
2021/07/28 04:04:58;;;;;;;27.95;17.12;;;;;;;25.16;46.50;99465.22;4403158;32;20096;-70
2021/07/28 04:07:24;;;;;;;35.75;21.00;;;;;;;25.26;46.26;99468.34;4404495;32;20547;-70
2021/07/28 04:09:50;;;;;;;37.13;23.27;;;;;;;25.16;46.26;99470.97;4404402;32;20069;-70
2021/07/28 04:12:16;;;;;;;35.83;22.65;;;;;;;25.21;46.15;99461.41;4406336;32;20089;-70
2021/07/28 04:14:42;;;;;;;39.72;23.40;;;;;;;25.03;46.75;99467.47;4406402;32;20102;-70
2021/07/28 04:17:07;;;;;;;46.17;25.65;;;;;;;25.17;46.57;99472.53;4406786;32;20105;-70
2021/07/28 04:19:33;;;;;;;44.38;24.95;;;;;;;25.18;46.61;99476.16;4405625;32;20177;-70
2021/07/28 04:21:59;;;;;;;41.28;25.40;;;;;;;25.12;46.80;99479.22;4394641;32;20086;-70
2021/07/28 04:24:24;;;;;;;41.33;24.23;;;;;;;25.04;46.98;99480.53;4408583;32;20196;-70
2021/07/28 04:26:50;;;;;;;40.20;22.80;;;;;;;24.95;47.05;99478.94;4403533;32;20090;-70
2021/07/28 04:29:16;;;;;;;32.95;19.67;;;;;;;24.92;47.28;99480.09;4403452;32;20392;-70
2021/07/28 04:31:41;;;;;;;34.70;20.17;;;;;;;25.03;46.72;99487.59;4407597;32;20481;-70
2021/07/28 04:34:07;;;;;;;31.67;19.73;;;;;;;25.15;46.53;99478.09;4407155;32;20165;-70
2021/07/28 04:36:32;;;;;;;25.95;16.05;;;;;;;25.28;46.28;99489.44;4404332;32;20451;-70
2021/07/28 04:39:01;;;;;;;19.15;12.48;;;;;;;24.87;47.00;99501.16;4406030;32;20030;-70
2021/07/28 04:41:27;;;;;;;17.42;10.10;;;;;;;24.94;46.70;99491.81;4408150;32;20037;-69
2021/07/28 04:43:53;;;;;;;10.02;6.68;;;;;;;24.94;46.67;99488.91;4365821;32;20534;-69
2021/07/28 04:46:20;;;;;;;7.10;4.20;;;;;;;24.64;47.13;99490.84;4404195;32;20034;-69
2021/07/28 04:48:49;;;;;;;4.20;1.73;;;;;;;24.80;46.64;99496.16;4406080;32;20351;-69
2021/07/28 04:51:15;;;;;;;4.82;1.37;;;;;;;24.63;46.14;99498.69;4406130;32;20038;-70
2021/07/28 04:53:41;;;;;;;2.33;1.00;;;;;;;24.57;46.18;99494.41;4406678;32;20086;-70
2021/07/28 04:56:06;;;;;;;1.95;0.98;;;;;;;24.38;47.18;99511.16;4406846;32;20343;-69
2021/07/28 04:58:32;;;;;;;1.85;0.93;;;;;;;23.86;49.38;99505.69;4407255;32;20042;-69
2021/07/28 05:00:58;;;;;;;4.72;1.20;;;;;;;23.18;51.69;99514.31;4404957;32;20424;-68
2021/07/28 05:03:24;;;;;;;3.05;1.20;;;;;;;22.97;54.19;99515.53;4406193;32;20116;-68
2021/07/28 05:05:50;;;;;;;2.03;1.12;;;;;;;22.96;53.64;99511.13;4406082;32;20473;-69
2021/07/28 05:08:15;;;;;;;4.55;1.20;;;;;;;23.05;53.22;99502.06;4405050;32;20388;-69
2021/07/28 05:10:41;;;;;;;2.35;1.08;;;;;;;22.94;53.80;99510.91;4405444;32;20407;-69
2021/07/28 05:13:07;;;;;;;2.30;1.08;;;;;;;22.65;53.72;99503.44;4405257;32;20096;-69
2021/07/28 05:15:33;;;;;;;5.05;1.10;;;;;;;22.49;53.56;99501.62;4406714;32;20172;-69
2021/07/28 05:17:58;;;;;;;2.15;0.70;;;;;;;22.26;54.47;99514.81;4403093;32;20041;-69
2021/07/28 05:20:24;;;;;;;1.90;0.90;;;;;;;21.60;55.19;99511.72;4403915;32;20042;-69
2021/07/28 05:22:51;;;;;;;2.30;1.02;;;;;;;21.39;55.24;99515.72;4407050;32;20061;-69
2021/07/28 05:25:17;;;;;;;1.48;0.85;;;;;;;21.75;54.58;99510.50;4407192;32;20503;-69
2021/07/28 05:27:43;;;;;;;1.70;1.10;;;;;;;21.42;54.90;99509.66;4409002;32;20392;-69
2021/07/28 05:30:09;;;;;;;6.90;1.23;;;;;;;21.42;54.87;99515.38;4406919;32;20504;-69
2021/07/28 05:32:35;;;;;;;1.40;1.10;;;;;;;21.62;54.47;99509.09;4406294;32;20092;-69
2021/07/28 05:35:02;;;;;;;2.20;1.23;;;;;;;21.43;54.18;99510.44;4405065;32;20060;-70
2021/07/28 05:37:28;;;;;;;1.87;0.95;;;;;;;21.45;53.78;99511.44;4406092;32;20109;-68
2021/07/28 05:39:55;;;;;;;1.58;0.90;;;;;;;21.70;53.07;99506.37;4399753;32;20069;-68
2021/07/28 05:42:21;;;;;;;4.18;1.40;;;;;;;21.67;53.38;99508.22;4402844;32;20221;-69
2021/07/28 05:44:46;;;;;;;1.77;1.10;;;;;;;21.85;53.13;99503.06;4406000;32;20367;-69
2021/07/28 05:47:12;;;;;;;9.05;1.40;;;;;;;21.84;53.39;99499.41;4401744;32;20472;-69
2021/07/28 05:49:38;;;;;;;2.03;1.17;;;;;;;21.97;53.39;99495.81;4402630;32;20009;-69
2021/07/28 05:52:04;;;;;;;4.25;1.10;;;;;;;21.95;51.99;99499.22;4402768;32;20046;-69
2021/07/28 05:54:30;;;;;;;2.15;1.27;;;;;;;22.31;51.24;99488.16;4402570;32;20441;-69
2021/07/28 05:56:56;;;;;;;2.22;0.93;;;;;;;22.24;50.44;99486.72;4403899;32;20431;-69
2021/07/28 05:59:22;;;;;;;5.80;1.55;;;;;;;22.50;50.33;99491.72;4404055;32;20379;-70
2021/07/28 06:01:48;;;;;;;3.37;1.20;;;;;;;22.68;49.60;99488.00;4402695;32;20042;-70
2021/07/28 06:04:14;;;;;;;2.92;1.48;;;;;;;22.69;49.30;99486.66;4405468;32;20155;-70
2021/07/28 06:06:39;;;;;;;3.42;1.40;;;;;;;22.99;49.57;99496.47;4405353;32;20041;-69
2021/07/28 06:09:06;;;;;;;2.30;1.60;;;;;;;23.05;48.52;99487.72;4401922;32;20475;-69
2021/07/28 06:11:31;;;;;;;4.07;1.70;;;;;;;23.15;49.05;99483.06;4399091;32;20030;-69
2021/07/28 06:13:57;;;;;;;5.85;2.37;;;;;;;23.22;48.74;99491.75;4403795;32;20134;-69
2021/07/28 06:16:25;;;;;;;2.80;1.90;;;;;;;23.46;49.59;99485.75;4403100;32;20054;-69
2021/07/28 06:18:51;;;;;;;3.22;1.95;;;;;;;23.81;48.97;99493.03;4403974;32;20090;-69
2021/07/28 06:21:17;;;;;;;2.65;1.67;;;;;;;23.92;48.60;99489.06;4405010;32;21351;-69
2021/07/28 06:23:43;;;;;;;6.78;1.73;;;;;;;23.73;47.25;99489.28;4405665;32;20070;-69
2021/07/28 06:26:08;;;;;;;5.20;1.83;;;;;;;24.02;47.99;99485.19;4407701;32;20394;-69
2021/07/28 06:28:34;;;;;;;3.78;1.83;;;;;;;23.79;47.73;99483.41;4393024;32;20045;-69
2021/07/28 06:31:00;;;;;;;3.83;1.58;;;;;;;23.87;47.20;99487.12;4409087;32;20492;-69
2021/07/28 06:33:26;;;;;;;3.90;2.17;;;;;;;23.69;46.98;99490.97;4408439;32;20434;-69
2021/07/28 06:35:52;;;;;;;5.32;1.90;;;;;;;23.58;47.93;99486.25;4406116;32;20104;-69
2021/07/28 06:38:20;;;;;;;2.80;1.90;;;;;;;23.51;47.32;99487.72;4406131;32;20041;-69
2021/07/28 06:40:46;;;;;;;3.17;2.10;;;;;;;23.23;48.07;99481.06;4405985;32;20452;-69
2021/07/28 06:43:14;;;;;;;3.25;2.08;;;;;;;23.22;48.15;99485.25;4405311;32;20098;-68
2021/07/28 06:45:40;;;;;;;5.72;2.25;;;;;;;23.36;48.35;99484.69;4409315;32;20110;-69
2021/07/28 06:48:06;;;;;;;4.22;2.40;;;;;;;23.26;48.59;99485.72;4405814;32;20374;-69
2021/07/28 06:50:32;;;;;;;4.00;2.53;;;;;;;23.39;48.05;99482.81;4408676;32;20026;-69
2021/07/28 06:52:58;;;;;;;3.47;2.15;;;;;;;23.37;47.62;99485.44;4404595;32;20057;-69
2021/07/28 06:55:24;;;;;;;7.43;2.72;;;;;;;22.97;47.87;99490.50;4408122;32;20451;-69
2021/07/28 06:57:51;;;;;;;3.80;2.65;;;;;;;23.30;48.55;99491.88;4406938;32;20414;-70
2021/07/28 07:00:17;;;;;;;6.20;2.60;;;;;;;23.58;47.82;99497.75;4409486;32;20057;-69
2021/07/28 07:02:42;;;;;;;4.32;2.45;;;;;;;23.66;47.70;99498.63;4407839;32;20102;-69
2021/07/28 07:05:10;;;;;;;4.80;2.87;;;;;;;23.82;47.37;99488.03;4409997;32;20147;-69
2021/07/28 07:07:36;;;;;;;3.67;2.40;;;;;;;23.93;46.15;99497.13;4406811;32;20095;-69
2021/07/28 07:10:08;;;;;;;7.65;2.80;;;;;;;24.15;45.70;99499.50;4407728;32;20034;-69
2021/07/28 07:12:36;;;;;;;5.25;2.30;;;;;;;24.21;45.65;99507.97;4408521;32;20472;-70
2021/07/28 07:15:04;;;;;;;5.43;2.67;;;;;;;24.26;45.88;99504.94;4407141;32;20374;-70
2021/07/28 07:17:30;;;;;;;4.80;2.30;;;;;;;24.28;46.06;99510.91;4406644;32;20057;-70
2021/07/28 07:19:56;;;;;;;3.58;2.55;;;;;;;24.18;45.18;99504.13;4410329;32;20073;-69
2021/07/28 07:22:21;;;;;;;3.92;2.30;;;;;;;24.42;44.99;99495.09;4407277;32;20068;-69
2021/07/28 07:24:47;;;;;;;5.40;2.67;;;;;;;24.31;44.96;99494.62;4406368;32;20064;-71
2021/07/28 07:27:14;;;;;;;3.60;2.50;;;;;;;24.53;45.18;99503.41;4404726;32;20538;-69
2021/07/28 07:29:39;;;;;;;4.93;2.53;;;;;;;24.77;44.55;99500.16;4409261;32;20095;-69
2021/07/28 07:32:05;;;;;;;6.62;2.53;;;;;;;24.66;44.62;99506.22;4404668;32;20065;-70
2021/07/28 07:34:31;;;;;;;4.68;2.30;;;;;;;24.73;44.17;99504.75;4407543;32;20061;-70
2021/07/28 07:36:56;;;;;;;6.55;2.45;;;;;;;24.99;43.42;99504.50;4404516;32;20374;-70
2021/07/28 07:39:22;;;;;;;4.95;2.55;;;;;;;25.02;43.36;99501.25;4406385;32;20077;-71
2021/07/28 07:41:48;;;;;;;9.68;2.83;;;;;;;24.93;43.71;99498.13;4406536;32;20035;-70
2021/07/28 07:44:14;;;;;;;4.65;2.37;;;;;;;24.96;43.33;99508.50;4407261;32;20218;-70
2021/07/28 07:46:40;;;;;;;5.57;2.65;;;;;;;24.63;44.15;99515.16;4406443;32;20069;-71
2021/07/28 07:49:07;;;;;;;4.53;2.97;;;;;;;24.71;44.09;99519.69;4405524;32;20104;-70
2021/07/28 07:51:33;;;;;;;7.47;3.00;;;;;;;24.39;45.45;99509.84;4409845;32;20055;-70
2021/07/28 07:53:58;;;;;;;8.00;3.22;;;;;;;24.45;44.81;99516.22;4408908;32;20112;-70
2021/07/28 07:56:24;;;;;;;9.55;4.68;;;;;;;24.66;44.75;99514.84;4408816;32;20447;-70
2021/07/28 07:58:50;;;;;;;9.45;4.60;;;;;;;24.61;44.70;99512.84;4403068;32;20062;-70
2021/07/28 08:01:16;;;;;;;9.90;4.70;;;;;;;24.80;43.80;99507.66;4406802;32;20064;-70
2021/07/28 08:03:42;;;;;;;10.05;5.18;;;;;;;24.94;43.63;99506.19;4407196;32;20361;-70
2021/07/28 08:06:09;;;;;;;9.07;5.82;;;;;;;25.11;43.35;99509.34;4406490;32;20077;-70
2021/07/28 08:08:39;;;;;;;8.65;4.78;;;;;;;25.00;43.54;99512.56;4403887;32;20109;-70
2021/07/28 08:11:10;;;;;;;8.30;5.10;;;;;;;24.86;44.00;99504.63;4408770;32;20057;-70
2021/07/28 08:13:36;;;;;;;12.00;7.18;;;;;;;24.92;43.52;99519.63;4406604;32;20030;-70
2021/07/28 08:16:08;;;;;;;11.57;6.95;;;;;;;24.24;44.71;99519.09;4406079;32;20021;-70
2021/07/28 08:18:34;;;;;;;10.07;6.80;;;;;;;24.90;43.10;99514.44;4407035;32;20099;-70
2021/07/28 08:21:01;;;;;;;11.60;7.57;;;;;;;24.89;43.49;99515.78;4409365;32;20073;-70
2021/07/28 08:23:27;;;;;;;11.15;8.00;;;;;;;24.55;43.74;99538.16;4407561;32;20066;-70
2021/07/28 08:25:53;;;;;;;19.87;8.35;;;;;;;24.35;43.61;99536.06;4405539;32;20090;-70
2021/07/28 08:28:18;;;;;;;11.23;7.87;;;;;;;24.64;42.89;99534.00;4404242;32;20058;-70
2021/07/28 08:30:44;;;;;;;10.07;6.62;;;;;;;24.59;43.46;99532.81;4394203;32;20050;-70
2021/07/28 08:33:09;;;;;;;9.05;6.72;;;;;;;24.62;42.82;99533.78;4403955;32;20087;-70
2021/07/28 08:35:35;;;;;;;9.93;7.15;;;;;;;24.35;43.12;99538.16;4407809;32;20728;-70
2021/07/28 08:38:01;;;;;;;9.63;7.00;;;;;;;24.29;43.12;99537.53;4405948;32;21091;-70
2021/07/28 08:40:27;;;;;;;10.38;7.30;;;;;;;24.45;42.68;99534.22;4403914;32;20073;-69
2021/07/28 08:42:55;;;;;;;9.18;6.90;;;;;;;24.60;42.76;99528.59;4405256;32;20100;-69
2021/07/28 08:45:20;;;;;;;27.50;8.27;;;;;;;24.84;42.76;99530.31;4404476;32;20107;-70
2021/07/28 08:47:46;;;;;;;11.70;6.78;;;;;;;24.85;42.75;99526.84;4406509;32;20035;-71
2021/07/28 08:50:13;;;;;;;10.77;5.95;;;;;;;24.69;42.61;99530.97;4402852;32;20043;-69
2021/07/28 08:52:40;;;;;;;15.18;5.90;;;;;;;25.34;41.00;99538.25;4405364;32;20033;-70
2021/07/28 08:55:07;;;;;;;11.45;5.18;;;;;;;25.53;40.95;99535.84;4403459;32;20102;-70
2021/07/28 08:57:34;;;;;;;7.43;4.40;;;;;;;25.69;40.64;99533.78;4403652;32;20136;-70
2021/07/28 09:00:00;;;;;;;5.12;3.72;;;;;;;26.03;39.66;99525.62;4405381;32;20065;-70
2021/07/28 09:02:27;;;;;;;4.82;3.42;;;;;;;26.19;38.83;99530.03;4404982;32;20505;-71
2021/07/28 09:04:53;;;;;;;6.30;3.17;;;;;;;26.32;38.48;99538.53;4409756;32;20120;-70
2021/07/28 09:07:22;;;;;;;6.50;2.55;;;;;;;25.98;38.79;99527.34;4405163;32;20042;-70
2021/07/28 09:12:34;;;;;;;11.10;2.80;;;;;;;27.15;36.98;99528.41;3998083;31;15018722;-70
2021/07/28 09:15:03;;;;;;;4.78;2.55;;;;;;;27.15;36.98;99528.41;4452029;32;20024;-70
2021/07/28 09:17:30;;;;;;;6.07;2.85;;;;;;;27.13;37.57;99524.56;4453345;32;20072;-69
2021/07/28 09:19:58;;;;;;;6.03;2.78;;;;;;;27.25;37.09;99522.81;4450901;32;20370;-69
2021/07/28 09:22:32;;;;;;;9.82;2.03;;;;;;;27.89;36.15;99525.78;4452121;32;20534;-70
2021/07/28 09:25:14;;;;;;;9.40;2.90;;;;;;;27.47;36.03;99518.28;4451324;32;20378;-70
2021/07/28 09:27:47;;;;;;;7.97;2.72;;;;;;;27.39;35.79;99515.44;4452516;32;20097;-70
2021/07/28 09:30:17;;;;;;;5.30;2.53;;;;;;;27.35;36.25;99514.28;4450426;32;20053;-70
2021/07/28 09:38:43;;;;;;;3.87;2.58;;;;;;;27.40;35.53;99522.78;3998325;31;15019154;-70
2021/07/28 09:41:12;;;;;;;8.77;2.83;;;;;;;27.40;35.53;99522.78;4453930;32;20413;-70
2021/07/28 09:43:58;;;;;;;4.80;2.35;;;;;;;26.64;37.15;99509.88;4453190;32;20061;-70
2021/07/28 09:46:25;;;;;;;;;;;;;;;26.95;36.80;99514.22;4455018;32;20043;-70
2021/07/28 09:48:51;;;;;;;4.32;2.58;;;;;;;27.33;35.80;99511.25;4453409;32;19948;-70
2021/07/28 09:51:33;;;;;;;3.53;2.53;;;;;;;27.72;35.16;99517.00;4455295;32;20110;-70
2021/07/28 09:54:01;;;;;;;3.72;2.37;;;;;;;28.41;33.82;99510.16;4454055;32;20389;-71
2021/07/28 09:59:13;;;;;;;4.80;2.33;;;;;;;29.05;33.15;99491.03;3995560;31;15017986;-71
2021/07/28 10:01:39;;;;;;;4.10;2.03;;;;;;;29.05;33.15;99491.03;4446962;32;20044;-70
2021/07/28 10:04:05;;;;;;;3.80;2.20;;;;;;;28.93;31.84;99496.56;4448103;32;20134;-70
2021/07/28 10:06:39;;;;;;;3.65;2.00;;;;;;;28.68;31.99;99493.72;4437276;32;20071;-70
2021/07/28 10:09:09;;;;;;;3.57;2.00;;;;;;;29.50;31.25;99499.13;4447521;32;20042;-70
2021/07/28 10:11:36;;;;;;;5.00;2.17;;;;;;;29.68;30.77;99491.97;4447891;32;20141;-70
2021/07/28 10:14:03;;;;;;;6.97;1.90;;;;;;;29.48;30.51;99484.50;4449849;32;20508;-70
2021/07/28 10:16:31;;;;;;;6.25;3.03;;;;;;;29.83;30.07;99497.53;4448364;32;20033;-69
2021/07/28 10:19:00;;;;;;;2.30;1.70;;;;;;;30.23;29.61;99495.78;4446695;32;20073;-70
2021/07/28 10:21:26;;;;;;;3.37;2.00;;;;;;;30.14;29.12;99492.81;4446779;32;20080;-70
2021/07/28 10:23:55;;;;;;;5.50;1.92;;;;;;;30.21;29.31;99486.12;4449578;32;20125;-70
2021/07/28 10:26:20;;;;;;;3.37;2.22;;;;;;;30.91;28.41;99480.06;4431810;32;20077;-70
2021/07/28 10:28:48;;;;;;;3.87;2.20;;;;;;;30.63;28.46;99483.66;4433198;32;20151;-69
2021/07/28 10:31:16;;;;;;;4.90;2.05;;;;;;;31.12;28.47;99474.41;4446794;32;20072;-69
2021/07/28 10:36:45;;;;;;;5.07;2.20;;;;;;;31.79;27.67;99475.09;3982144;32;15022508;-70
2021/07/28 10:39:11;;;;;;;5.00;2.08;;;;;;;32.44;26.34;99466.72;4436652;32;20025;-69
2021/07/28 10:44:16;;;;;;;5.03;2.37;;;;;;;32.03;26.85;99452.81;3980577;32;15024309;-69
2021/07/28 10:52:41;;;;;;;4.25;2.58;;;;;;;32.81;26.02;99443.00;4004461;31;15017517;-69
2021/07/28 10:55:12;;;;;;;5.68;2.10;;;;;;;32.81;26.02;99443.00;4459803;32;20361;-69
2021/07/28 11:03:14;;;;;;;3.40;2.20;;;;;;;33.57;25.07;99435.78;3982365;32;15023104;-70
2021/07/28 11:05:42;;;;;;;4.82;2.40;;;;;;;33.59;25.16;99437.41;4434574;32;20065;-70
2021/07/28 11:13:23;;;;;;;4.65;2.37;;;;;;;33.24;25.52;99438.66;3983248;32;15023852;-71
2021/07/28 11:18:48;;;;;;;6.37;2.60;;;;;;;33.12;24.86;99447.38;3990016;31;15014353;-69
2021/07/28 11:21:16;;;;;;;6.70;2.60;;;;;;;33.12;24.86;99447.38;4443459;32;20076;-69
2021/07/28 11:26:22;;;;;;;6.65;2.58;;;;;;;31.35;27.73;99436.16;3955354;32;15723451;-70
2021/07/28 11:28:52;;;;;;;8.45;2.60;;;;;;;31.35;27.73;99436.16;4430231;32;20377;-70
2021/07/28 11:34:02;;;;;;;4.40;2.62;;;;;;;30.40;27.97;99405.69;3987139;32;15025428;-71
2021/07/28 11:36:28;;;;;;;4.68;2.33;;;;;;;29.95;28.49;99406.47;4436125;32;20386;-69
2021/07/28 11:39:15;;;;;;;5.22;2.30;;;;;;;29.46;30.04;99414.75;4433923;32;20117;-69
2021/07/28 11:41:42;;;;;;;4.43;2.50;;;;;;;28.92;32.68;99437.06;4436937;32;20060;-69
2021/07/28 11:44:08;;;;;;;6.93;2.75;;;;;;;28.60;33.37;99435.13;4437851;32;20845;-69
2021/07/28 11:46:34;;;;;;;8.73;2.62;;;;;;;28.32;33.55;99449.28;4435448;32;20095;-70
2021/07/28 11:49:05;;;;;;;5.65;2.87;;;;;;;28.02;34.44;99447.44;4438266;32;20063;-71
2021/07/28 11:51:32;;;;;;;6.22;2.90;;;;;;;28.03;34.68;99460.53;4436621;32;20076;-69
2021/07/28 11:54:09;;;;;;;6.85;2.72;;;;;;;27.67;35.33;99448.59;4434434;32;20109;-70
2021/07/28 11:56:36;;;;;;;7.10;2.50;;;;;;;27.03;36.53;99449.31;4434804;32;20060;-69
2021/07/28 11:59:02;;;;;;;6.28;2.37;;;;;;;26.50;37.39;99462.34;4438041;32;20144;-69
2021/07/28 12:04:08;;;;;;;4.32;2.45;;;;;;;25.99;39.14;99476.22;3952082;31;15719274;-69
2021/07/28 12:11:57;;;;;;;7.75;3.00;;;;;;;25.55;41.02;99492.06;3996078;31;15027582;-69
2021/07/28 12:14:41;;;;;;;8.10;2.65;;;;;;;25.55;41.02;99492.06;4452025;32;20702;-69
2021/07/28 12:35:54;;;;;;;6.22;1.65;;;;;;;22.38;47.23;99514.09;3953101;32;15022579;-70